sensor_id;sensor_type;location;lat;lon;timestamp;P1;durP1;ratioP1;P2;durP2;ratioP2
78854;SDS011;68206;59.956;30.234;2023-11-22T00:00:58;5.55;;;2.00;;
78854;SDS011;68206;59.956;30.234;2023-11-22T00:03:28;4.00;;;2.08;;
78854;SDS011;68206;59.956;30.234;2023-11-22T00:05:57;2.63;;;1.65;;
78854;SDS011;68206;59.956;30.234;2023-11-22T00:08:25;2.58;;;1.95;;
78854;SDS011;68206;59.956;30.234;2023-11-22T00:10:53;3.95;;;2.35;;
78854;SDS011;68206;59.956;30.234;2023-11-22T00:13:21;2.95;;;1.95;;
78854;SDS011;68206;59.956;30.234;2023-11-22T00:15:50;3.95;;;1.60;;
78854;SDS011;68206;59.956;30.234;2023-11-22T00:18:18;3.90;;;2.13;;
78854;SDS011;68206;59.956;30.234;2023-11-22T00:20:48;5.38;;;2.10;;
78854;SDS011;68206;59.956;30.234;2023-11-22T00:23:16;3.38;;;1.80;;
78854;SDS011;68206;59.956;30.234;2023-11-22T00:25:45;3.50;;;1.88;;
78854;SDS011;68206;59.956;30.234;2023-11-22T00:28:13;4.00;;;2.25;;
78854;SDS011;68206;59.956;30.234;2023-11-22T00:30:42;3.05;;;1.70;;
78854;SDS011;68206;59.956;30.234;2023-11-22T00:33:10;5.22;;;2.53;;
78854;SDS011;68206;59.956;30.234;2023-11-22T00:35:39;3.55;;;1.90;;
78854;SDS011;68206;59.956;30.234;2023-11-22T00:38:08;4.55;;;1.95;;
78854;SDS011;68206;59.956;30.234;2023-11-22T00:40:37;3.45;;;1.95;;
78854;SDS011;68206;59.956;30.234;2023-11-22T00:43:05;3.35;;;2.00;;
78854;SDS011;68206;59.956;30.234;2023-11-22T00:45:34;2.78;;;1.95;;
78854;SDS011;68206;59.956;30.234;2023-11-22T00:48:03;5.22;;;2.13;;
78854;SDS011;68206;59.956;30.234;2023-11-22T00:50:31;2.63;;;1.55;;
78854;SDS011;68206;59.956;30.234;2023-11-22T00:52:59;3.15;;;1.92;;
78854;SDS011;68206;59.956;30.234;2023-11-22T00:55:29;4.22;;;2.10;;
78854;SDS011;68206;59.956;30.234;2023-11-22T00:57:58;3.00;;;1.85;;
78854;SDS011;68206;59.956;30.234;2023-11-22T01:00:30;4.47;;;1.88;;
78854;SDS011;68206;59.956;30.234;2023-11-22T01:02:59;5.47;;;2.20;;
78854;SDS011;68206;59.956;30.234;2023-11-22T01:05:27;4.47;;;1.92;;
78854;SDS011;68206;59.956;30.234;2023-11-22T01:07:56;3.55;;;1.80;;
78854;SDS011;68206;59.956;30.234;2023-11-22T01:10:24;3.92;;;2.42;;
78854;SDS011;68206;59.956;30.234;2023-11-22T01:12:54;5.78;;;2.30;;
78854;SDS011;68206;59.956;30.234;2023-11-22T01:15:22;2.65;;;1.80;;
78854;SDS011;68206;59.956;30.234;2023-11-22T01:17:51;4.13;;;2.20;;
78854;SDS011;68206;59.956;30.234;2023-11-22T01:20:20;3.90;;;2.13;;
78854;SDS011;68206;59.956;30.234;2023-11-22T01:22:50;3.53;;;1.90;;
78854;SDS011;68206;59.956;30.234;2023-11-22T01:25:18;4.53;;;2.10;;
78854;SDS011;68206;59.956;30.234;2023-11-22T01:27:47;4.00;;;2.15;;
78854;SDS011;68206;59.956;30.234;2023-11-22T01:30:17;4.82;;;1.85;;
78854;SDS011;68206;59.956;30.234;2023-11-22T01:32:45;3.58;;;2.13;;
78854;SDS011;68206;59.956;30.234;2023-11-22T01:35:14;3.88;;;2.00;;
78854;SDS011;68206;59.956;30.234;2023-11-22T01:37:42;3.13;;;2.13;;
78854;SDS011;68206;59.956;30.234;2023-11-22T01:40:11;4.63;;;2.00;;
78854;SDS011;68206;59.956;30.234;2023-11-22T01:42:40;3.75;;;1.88;;
78854;SDS011;68206;59.956;30.234;2023-11-22T01:45:08;3.45;;;1.88;;
78854;SDS011;68206;59.956;30.234;2023-11-22T01:47:38;3.13;;;1.83;;
78854;SDS011;68206;59.956;30.234;2023-11-22T01:50:08;2.70;;;1.77;;
78854;SDS011;68206;59.956;30.234;2023-11-22T01:52:37;3.00;;;1.50;;
78854;SDS011;68206;59.956;30.234;2023-11-22T01:55:06;5.05;;;2.25;;
78854;SDS011;68206;59.956;30.234;2023-11-22T01:57:36;2.28;;;1.70;;
78854;SDS011;68206;59.956;30.234;2023-11-22T02:00:06;4.38;;;1.85;;
78854;SDS011;68206;59.956;30.234;2023-11-22T02:02:42;2.65;;;1.73;;
78854;SDS011;68206;59.956;30.234;2023-11-22T02:05:11;3.38;;;1.77;;
78854;SDS011;68206;59.956;30.234;2023-11-22T02:07:39;6.50;;;2.67;;
78854;SDS011;68206;59.956;30.234;2023-11-22T02:10:09;4.40;;;2.15;;
78854;SDS011;68206;59.956;30.234;2023-11-22T02:12:38;5.50;;;2.70;;
78854;SDS011;68206;59.956;30.234;2023-11-22T02:15:07;5.10;;;2.65;;
78854;SDS011;68206;59.956;30.234;2023-11-22T02:17:36;5.35;;;3.08;;
78854;SDS011;68206;59.956;30.234;2023-11-22T02:20:06;11.18;;;3.50;;
78854;SDS011;68206;59.956;30.234;2023-11-22T02:22:44;10.45;;;4.20;;
78854;SDS011;68206;59.956;30.234;2023-11-22T02:25:15;6.50;;;4.03;;
78854;SDS011;68206;59.956;30.234;2023-11-22T02:27:44;5.80;;;3.50;;
78854;SDS011;68206;59.956;30.234;2023-11-22T02:30:12;6.68;;;4.60;;
78854;SDS011;68206;59.956;30.234;2023-11-22T02:32:41;7.88;;;4.93;;
78854;SDS011;68206;59.956;30.234;2023-11-22T02:35:09;6.95;;;4.25;;
78854;SDS011;68206;59.956;30.234;2023-11-22T02:37:38;7.80;;;4.93;;
78854;SDS011;68206;59.956;30.234;2023-11-22T02:40:09;6.90;;;4.22;;
78854;SDS011;68206;59.956;30.234;2023-11-22T02:42:46;7.20;;;3.97;;
78854;SDS011;68206;59.956;30.234;2023-11-22T02:45:16;4.15;;;2.95;;
78854;SDS011;68206;59.956;30.234;2023-11-22T02:47:45;6.22;;;3.20;;
78854;SDS011;68206;59.956;30.234;2023-11-22T02:50:13;9.25;;;3.38;;
78854;SDS011;68206;59.956;30.234;2023-11-22T02:52:42;8.43;;;3.97;;
78854;SDS011;68206;59.956;30.234;2023-11-22T02:55:11;5.60;;;2.80;;
78854;SDS011;68206;59.956;30.234;2023-11-22T02:57:39;4.55;;;2.78;;
78854;SDS011;68206;59.956;30.234;2023-11-22T03:00:09;5.65;;;3.05;;
78854;SDS011;68206;59.956;30.234;2023-11-22T03:02:40;4.03;;;2.22;;
78854;SDS011;68206;59.956;30.234;2023-11-22T03:05:09;7.93;;;2.00;;
78854;SDS011;68206;59.956;30.234;2023-11-22T03:07:40;3.45;;;1.77;;
78854;SDS011;68206;59.956;30.234;2023-11-22T03:10:09;3.20;;;1.90;;
78854;SDS011;68206;59.956;30.234;2023-11-22T03:12:37;2.55;;;1.90;;
78854;SDS011;68206;59.956;30.234;2023-11-22T03:15:06;3.17;;;1.30;;
78854;SDS011;68206;59.956;30.234;2023-11-22T03:17:37;3.13;;;1.80;;
78854;SDS011;68206;59.956;30.234;2023-11-22T03:20:06;4.80;;;2.17;;
78854;SDS011;68206;59.956;30.234;2023-11-22T03:22:38;2.95;;;1.48;;
78854;SDS011;68206;59.956;30.234;2023-11-22T03:25:07;4.03;;;1.77;;
78854;SDS011;68206;59.956;30.234;2023-11-22T03:27:37;4.20;;;1.60;;
78854;SDS011;68206;59.956;30.234;2023-11-22T03:30:06;2.97;;;1.77;;
78854;SDS011;68206;59.956;30.234;2023-11-22T03:32:40;4.68;;;2.10;;
78854;SDS011;68206;59.956;30.234;2023-11-22T03:35:10;1.50;;;1.25;;
78854;SDS011;68206;59.956;30.234;2023-11-22T03:37:40;1.85;;;1.25;;
78854;SDS011;68206;59.956;30.234;2023-11-22T03:40:09;3.00;;;1.77;;
78854;SDS011;68206;59.956;30.234;2023-11-22T03:42:40;3.03;;;1.33;;
78854;SDS011;68206;59.956;30.234;2023-11-22T03:45:09;2.03;;;0.93;;
78854;SDS011;68206;59.956;30.234;2023-11-22T03:47:40;3.00;;;1.73;;
78854;SDS011;68206;59.956;30.234;2023-11-22T03:50:09;2.05;;;1.20;;
78854;SDS011;68206;59.956;30.234;2023-11-22T03:52:37;2.65;;;1.73;;
78854;SDS011;68206;59.956;30.234;2023-11-22T03:55:06;2.33;;;1.50;;
78854;SDS011;68206;59.956;30.234;2023-11-22T03:57:35;3.08;;;1.58;;
78854;SDS011;68206;59.956;30.234;2023-11-22T04:00:04;3.40;;;1.70;;
78854;SDS011;68206;59.956;30.234;2023-11-22T04:02:40;1.73;;;1.02;;
78854;SDS011;68206;59.956;30.234;2023-11-22T04:05:10;2.60;;;1.30;;
78854;SDS011;68206;59.956;30.234;2023-11-22T04:07:39;2.03;;;1.55;;
78854;SDS011;68206;59.956;30.234;2023-11-22T04:10:08;2.28;;;1.42;;
78854;SDS011;68206;59.956;30.234;2023-11-22T04:12:37;1.73;;;1.40;;
78854;SDS011;68206;59.956;30.234;2023-11-22T04:15:06;2.90;;;1.35;;
78854;SDS011;68206;59.956;30.234;2023-11-22T04:17:37;3.20;;;1.40;;
78854;SDS011;68206;59.956;30.234;2023-11-22T04:20:08;5.70;;;1.70;;
78854;SDS011;68206;59.956;30.234;2023-11-22T04:22:37;1.65;;;1.08;;
78854;SDS011;68206;59.956;30.234;2023-11-22T04:25:07;2.13;;;1.40;;
78854;SDS011;68206;59.956;30.234;2023-11-22T04:27:36;3.33;;;1.70;;
78854;SDS011;68206;59.956;30.234;2023-11-22T04:30:06;1.55;;;1.42;;
78854;SDS011;68206;59.956;30.234;2023-11-22T04:32:40;1.55;;;0.88;;
78854;SDS011;68206;59.956;30.234;2023-11-22T04:35:10;2.70;;;1.30;;
78854;SDS011;68206;59.956;30.234;2023-11-22T04:37:40;1.60;;;1.25;;
78854;SDS011;68206;59.956;30.234;2023-11-22T04:40:10;2.35;;;1.40;;
78854;SDS011;68206;59.956;30.234;2023-11-22T04:42:41;2.83;;;1.50;;
78854;SDS011;68206;59.956;30.234;2023-11-22T04:45:09;1.85;;;1.30;;
78854;SDS011;68206;59.956;30.234;2023-11-22T04:47:38;2.78;;;1.63;;
78854;SDS011;68206;59.956;30.234;2023-11-22T04:50:07;2.97;;;1.42;;
78854;SDS011;68206;59.956;30.234;2023-11-22T04:52:37;2.75;;;1.60;;
78854;SDS011;68206;59.956;30.234;2023-11-22T04:55:06;2.28;;;1.15;;
78854;SDS011;68206;59.956;30.234;2023-11-22T04:57:35;3.17;;;1.50;;
78854;SDS011;68206;59.956;30.234;2023-11-22T05:00:04;2.38;;;1.23;;
78854;SDS011;68206;59.956;30.234;2023-11-22T05:02:34;2.15;;;1.30;;
78854;SDS011;68206;59.956;30.234;2023-11-22T05:05:03;1.95;;;1.48;;
78854;SDS011;68206;59.956;30.234;2023-11-22T05:07:31;3.03;;;2.00;;
78854;SDS011;68206;59.956;30.234;2023-11-22T05:10:01;3.85;;;1.70;;
78854;SDS011;68206;59.956;30.234;2023-11-22T05:12:30;1.80;;;1.27;;
78854;SDS011;68206;59.956;30.234;2023-11-22T05:14:59;1.95;;;1.17;;
78854;SDS011;68206;59.956;30.234;2023-11-22T05:17:29;2.38;;;1.65;;
78854;SDS011;68206;59.956;30.234;2023-11-22T05:19:58;3.58;;;1.67;;
78854;SDS011;68206;59.956;30.234;2023-11-22T05:22:26;2.92;;;1.77;;
78854;SDS011;68206;59.956;30.234;2023-11-22T05:24:55;4.35;;;1.90;;
78854;SDS011;68206;59.956;30.234;2023-11-22T05:27:24;5.88;;;2.13;;
78854;SDS011;68206;59.956;30.234;2023-11-22T05:29:53;3.10;;;1.90;;
78854;SDS011;68206;59.956;30.234;2023-11-22T05:32:21;3.25;;;1.67;;
78854;SDS011;68206;59.956;30.234;2023-11-22T05:34:50;2.28;;;1.60;;
78854;SDS011;68206;59.956;30.234;2023-11-22T05:37:19;1.98;;;1.42;;
78854;SDS011;68206;59.956;30.234;2023-11-22T05:39:50;3.72;;;1.70;;
78854;SDS011;68206;59.956;30.234;2023-11-22T05:42:18;2.22;;;1.52;;
78854;SDS011;68206;59.956;30.234;2023-11-22T05:44:48;2.03;;;1.35;;
78854;SDS011;68206;59.956;30.234;2023-11-22T05:47:17;2.55;;;1.52;;
78854;SDS011;68206;59.956;30.234;2023-11-22T05:49:46;3.58;;;2.00;;
78854;SDS011;68206;59.956;30.234;2023-11-22T05:52:14;2.72;;;1.70;;
78854;SDS011;68206;59.956;30.234;2023-11-22T05:54:43;8.32;;;2.30;;
78854;SDS011;68206;59.956;30.234;2023-11-22T05:57:11;2.78;;;1.30;;
78854;SDS011;68206;59.956;30.234;2023-11-22T05:59:40;2.60;;;1.35;;
78854;SDS011;68206;59.956;30.234;2023-11-22T06:02:09;3.05;;;1.90;;
78854;SDS011;68206;59.956;30.234;2023-11-22T06:04:40;3.47;;;1.70;;
78854;SDS011;68206;59.956;30.234;2023-11-22T06:07:08;2.58;;;1.40;;
78854;SDS011;68206;59.956;30.234;2023-11-22T06:09:37;4.65;;;1.63;;
78854;SDS011;68206;59.956;30.234;2023-11-22T06:12:05;3.35;;;1.40;;
78854;SDS011;68206;59.956;30.234;2023-11-22T06:14:34;3.60;;;2.08;;
78854;SDS011;68206;59.956;30.234;2023-11-22T06:17:03;4.43;;;2.03;;
78854;SDS011;68206;59.956;30.234;2023-11-22T06:19:33;3.42;;;1.90;;
78854;SDS011;68206;59.956;30.234;2023-11-22T06:22:02;3.22;;;1.52;;
78854;SDS011;68206;59.956;30.234;2023-11-22T06:24:31;2.55;;;1.75;;
78854;SDS011;68206;59.956;30.234;2023-11-22T06:27:00;4.38;;;1.50;;
78854;SDS011;68206;59.956;30.234;2023-11-22T06:29:28;2.05;;;1.30;;
78854;SDS011;68206;59.956;30.234;2023-11-22T06:31:57;7.22;;;2.08;;
78854;SDS011;68206;59.956;30.234;2023-11-22T06:34:25;3.17;;;1.58;;
78854;SDS011;68206;59.956;30.234;2023-11-22T06:36:55;8.60;;;1.95;;
78854;SDS011;68206;59.956;30.234;2023-11-22T06:39:23;3.33;;;1.75;;
78854;SDS011;68206;59.956;30.234;2023-11-22T06:41:52;6.15;;;2.20;;
78854;SDS011;68206;59.956;30.234;2023-11-22T06:44:20;3.08;;;1.40;;
78854;SDS011;68206;59.956;30.234;2023-11-22T06:46:49;4.10;;;1.90;;
78854;SDS011;68206;59.956;30.234;2023-11-22T06:49:19;2.42;;;1.52;;
78854;SDS011;68206;59.956;30.234;2023-11-22T06:51:47;4.85;;;1.65;;
78854;SDS011;68206;59.956;30.234;2023-11-22T06:54:17;3.22;;;1.73;;
78854;SDS011;68206;59.956;30.234;2023-11-22T06:56:46;2.55;;;1.40;;
78854;SDS011;68206;59.956;30.234;2023-11-22T06:59:15;1.95;;;1.55;;
78854;SDS011;68206;59.956;30.234;2023-11-22T07:01:43;3.78;;;2.22;;
78854;SDS011;68206;59.956;30.234;2023-11-22T07:04:12;2.42;;;1.42;;
78854;SDS011;68206;59.956;30.234;2023-11-22T07:06:40;2.75;;;1.67;;
78854;SDS011;68206;59.956;30.234;2023-11-22T07:09:09;2.05;;;1.33;;
78854;SDS011;68206;59.956;30.234;2023-11-22T07:11:39;3.22;;;1.50;;
78854;SDS011;68206;59.956;30.234;2023-11-22T07:14:08;6.05;;;1.58;;
78854;SDS011;68206;59.956;30.234;2023-11-22T07:16:36;1.58;;;1.40;;
78854;SDS011;68206;59.956;30.234;2023-11-22T07:19:05;4.25;;;1.90;;
78854;SDS011;68206;59.956;30.234;2023-11-22T07:21:34;2.92;;;1.35;;
78854;SDS011;68206;59.956;30.234;2023-11-22T07:24:05;3.42;;;1.90;;
78854;SDS011;68206;59.956;30.234;2023-11-22T07:26:35;2.00;;;1.30;;
78854;SDS011;68206;59.956;30.234;2023-11-22T07:29:05;1.25;;;1.10;;
78854;SDS011;68206;59.956;30.234;2023-11-22T07:31:34;2.38;;;1.52;;
78854;SDS011;68206;59.956;30.234;2023-11-22T07:34:04;2.25;;;1.45;;
78854;SDS011;68206;59.956;30.234;2023-11-22T07:36:32;2.97;;;1.63;;
78854;SDS011;68206;59.956;30.234;2023-11-22T07:39:01;2.80;;;1.42;;
78854;SDS011;68206;59.956;30.234;2023-11-22T07:41:30;2.78;;;1.50;;
78854;SDS011;68206;59.956;30.234;2023-11-22T07:44:01;1.95;;;1.48;;
78854;SDS011;68206;59.956;30.234;2023-11-22T07:46:31;1.92;;;1.38;;
78854;SDS011;68206;59.956;30.234;2023-11-22T07:49:00;2.30;;;1.60;;
78854;SDS011;68206;59.956;30.234;2023-11-22T07:51:29;3.28;;;1.70;;
78854;SDS011;68206;59.956;30.234;2023-11-22T07:53:57;3.30;;;1.50;;
78854;SDS011;68206;59.956;30.234;2023-11-22T07:56:25;3.75;;;2.08;;
78854;SDS011;68206;59.956;30.234;2023-11-22T07:58:54;6.50;;;1.75;;
78854;SDS011;68206;59.956;30.234;2023-11-22T08:01:22;2.10;;;1.17;;
78854;SDS011;68206;59.956;30.234;2023-11-22T08:03:53;2.97;;;1.77;;
78854;SDS011;68206;59.956;30.234;2023-11-22T08:06:22;3.08;;;1.98;;
78854;SDS011;68206;59.956;30.234;2023-11-22T08:08:53;1.85;;;1.40;;
78854;SDS011;68206;59.956;30.234;2023-11-22T08:11:22;4.28;;;1.67;;
78854;SDS011;68206;59.956;30.234;2023-11-22T08:13:51;2.85;;;1.83;;
78854;SDS011;68206;59.956;30.234;2023-11-22T08:16:21;3.55;;;1.80;;
78854;SDS011;68206;59.956;30.234;2023-11-22T08:18:50;2.58;;;1.63;;
78854;SDS011;68206;59.956;30.234;2023-11-22T08:21:19;3.67;;;1.80;;
78854;SDS011;68206;59.956;30.234;2023-11-22T08:23:48;2.30;;;1.35;;
78854;SDS011;68206;59.956;30.234;2023-11-22T08:26:16;1.80;;;1.17;;
78854;SDS011;68206;59.956;30.234;2023-11-22T08:28:45;2.60;;;1.58;;
78854;SDS011;68206;59.956;30.234;2023-11-22T08:31:13;1.88;;;1.35;;
78854;SDS011;68206;59.956;30.234;2023-11-22T08:33:43;2.25;;;1.45;;
78854;SDS011;68206;59.956;30.234;2023-11-22T08:36:11;6.28;;;1.85;;
78854;SDS011;68206;59.956;30.234;2023-11-22T08:38:41;4.40;;;2.00;;
78854;SDS011;68206;59.956;30.234;2023-11-22T08:41:11;4.28;;;1.83;;
78854;SDS011;68206;59.956;30.234;2023-11-22T08:43:41;1.92;;;1.27;;
78854;SDS011;68206;59.956;30.234;2023-11-22T08:46:09;2.88;;;1.30;;
78854;SDS011;68206;59.956;30.234;2023-11-22T08:48:41;3.42;;;1.98;;
78854;SDS011;68206;59.956;30.234;2023-11-22T08:51:10;2.10;;;1.50;;
78854;SDS011;68206;59.956;30.234;2023-11-22T08:53:39;1.92;;;1.33;;
78854;SDS011;68206;59.956;30.234;2023-11-22T08:56:11;1.65;;;1.23;;
78854;SDS011;68206;59.956;30.234;2023-11-22T08:58:39;3.53;;;1.90;;
78854;SDS011;68206;59.956;30.234;2023-11-22T09:01:09;4.43;;;1.90;;
78854;SDS011;68206;59.956;30.234;2023-11-22T09:03:41;3.60;;;1.90;;
78854;SDS011;68206;59.956;30.234;2023-11-22T09:06:11;3.65;;;1.73;;
78854;SDS011;68206;59.956;30.234;2023-11-22T09:08:39;3.08;;;1.60;;
78854;SDS011;68206;59.956;30.234;2023-11-22T09:11:10;2.63;;;1.65;;
78854;SDS011;68206;59.956;30.234;2023-11-22T09:13:38;2.78;;;1.90;;
78854;SDS011;68206;59.956;30.234;2023-11-22T09:16:07;1.55;;;1.20;;
78854;SDS011;68206;59.956;30.234;2023-11-22T09:18:37;3.75;;;1.90;;
78854;SDS011;68206;59.956;30.234;2023-11-22T09:21:05;6.47;;;1.73;;
78854;SDS011;68206;59.956;30.234;2023-11-22T09:23:35;1.90;;;1.35;;
78854;SDS011;68206;59.956;30.234;2023-11-22T09:26:05;4.30;;;1.55;;
78854;SDS011;68206;59.956;30.234;2023-11-22T09:28:33;2.67;;;1.83;;
78854;SDS011;68206;59.956;30.234;2023-11-22T09:31:03;2.35;;;1.77;;
78854;SDS011;68206;59.956;30.234;2023-11-22T09:33:33;2.95;;;1.60;;
78854;SDS011;68206;59.956;30.234;2023-11-22T09:36:02;2.60;;;1.70;;
78854;SDS011;68206;59.956;30.234;2023-11-22T09:38:36;3.10;;;1.55;;
78854;SDS011;68206;59.956;30.234;2023-11-22T09:41:06;2.55;;;1.50;;
78854;SDS011;68206;59.956;30.234;2023-11-22T09:43:36;2.50;;;1.40;;
78854;SDS011;68206;59.956;30.234;2023-11-22T09:46:06;6.40;;;1.83;;
78854;SDS011;68206;59.956;30.234;2023-11-22T09:48:39;2.38;;;1.50;;
78854;SDS011;68206;59.956;30.234;2023-11-22T09:51:11;3.22;;;1.75;;
78854;SDS011;68206;59.956;30.234;2023-11-22T09:53:50;2.88;;;1.48;;
78854;SDS011;68206;59.956;30.234;2023-11-22T09:56:22;3.15;;;1.80;;
78854;SDS011;68206;59.956;30.234;2023-11-22T09:58:54;2.17;;;1.13;;
78854;SDS011;68206;59.956;30.234;2023-11-22T10:01:23;2.08;;;1.52;;
78854;SDS011;68206;59.956;30.234;2023-11-22T10:03:55;3.50;;;1.50;;
78854;SDS011;68206;59.956;30.234;2023-11-22T10:06:23;2.03;;;1.40;;
78854;SDS011;68206;59.956;30.234;2023-11-22T10:08:52;1.92;;;1.30;;
78854;SDS011;68206;59.956;30.234;2023-11-22T10:11:22;2.25;;;1.40;;
78854;SDS011;68206;59.956;30.234;2023-11-22T10:13:51;1.10;;;0.93;;
78854;SDS011;68206;59.956;30.234;2023-11-22T10:16:19;1.30;;;1.17;;
78854;SDS011;68206;59.956;30.234;2023-11-22T10:18:48;3.50;;;1.30;;
78854;SDS011;68206;59.956;30.234;2023-11-22T10:21:21;2.25;;;1.40;;
78854;SDS011;68206;59.956;30.234;2023-11-22T10:23:53;2.47;;;1.30;;
78854;SDS011;68206;59.956;30.234;2023-11-22T10:26:25;2.08;;;1.45;;
78854;SDS011;68206;59.956;30.234;2023-11-22T10:28:55;2.45;;;1.45;;
78854;SDS011;68206;59.956;30.234;2023-11-22T10:31:25;1.67;;;1.33;;
78854;SDS011;68206;59.956;30.234;2023-11-22T10:33:55;2.28;;;1.63;;
78854;SDS011;68206;59.956;30.234;2023-11-22T10:36:25;1.90;;;1.10;;
78854;SDS011;68206;59.956;30.234;2023-11-22T10:38:54;1.58;;;1.20;;
78854;SDS011;68206;59.956;30.234;2023-11-22T10:41:26;2.58;;;1.20;;
78854;SDS011;68206;59.956;30.234;2023-11-22T10:43:54;2.35;;;1.50;;
78854;SDS011;68206;59.956;30.234;2023-11-22T10:46:27;1.90;;;1.45;;
78854;SDS011;68206;59.956;30.234;2023-11-22T10:48:57;2.80;;;1.35;;
78854;SDS011;68206;59.956;30.234;2023-11-22T10:51:26;2.28;;;1.60;;
78854;SDS011;68206;59.956;30.234;2023-11-22T10:53:59;2.08;;;1.60;;
78854;SDS011;68206;59.956;30.234;2023-11-22T10:56:36;1.42;;;1.10;;
78854;SDS011;68206;59.956;30.234;2023-11-22T10:59:09;3.70;;;1.88;;
78854;SDS011;68206;59.956;30.234;2023-11-22T11:01:42;2.30;;;1.40;;
78854;SDS011;68206;59.956;30.234;2023-11-22T11:04:17;3.03;;;1.63;;
78854;SDS011;68206;59.956;30.234;2023-11-22T11:06:50;2.55;;;1.77;;
78854;SDS011;68206;59.956;30.234;2023-11-22T11:09:22;2.80;;;1.50;;
78854;SDS011;68206;59.956;30.234;2023-11-22T11:11:58;6.05;;;2.03;;
78854;SDS011;68206;59.956;30.234;2023-11-22T11:14:30;3.45;;;1.48;;
78854;SDS011;68206;59.956;30.234;2023-11-22T11:16:59;2.42;;;1.60;;
78854;SDS011;68206;59.956;30.234;2023-11-22T11:19:28;2.20;;;1.35;;
78854;SDS011;68206;59.956;30.234;2023-11-22T11:21:59;2.78;;;1.70;;
78854;SDS011;68206;59.956;30.234;2023-11-22T11:24:27;2.50;;;1.55;;
78854;SDS011;68206;59.956;30.234;2023-11-22T11:26:57;3.58;;;1.88;;
78854;SDS011;68206;59.956;30.234;2023-11-22T11:29:30;2.50;;;1.63;;
78854;SDS011;68206;59.956;30.234;2023-11-22T11:32:02;2.85;;;1.77;;
78854;SDS011;68206;59.956;30.234;2023-11-22T11:34:31;2.55;;;1.50;;
78854;SDS011;68206;59.956;30.234;2023-11-22T11:37:00;2.33;;;1.30;;
78854;SDS011;68206;59.956;30.234;2023-11-22T11:39:29;2.95;;;1.92;;
78854;SDS011;68206;59.956;30.234;2023-11-22T11:42:10;3.50;;;2.20;;
78854;SDS011;68206;59.956;30.234;2023-11-22T11:44:51;1.67;;;1.05;;
78854;SDS011;68206;59.956;30.234;2023-11-22T11:47:30;2.67;;;1.67;;
78854;SDS011;68206;59.956;30.234;2023-11-22T11:49:59;2.28;;;1.38;;
78854;SDS011;68206;59.956;30.234;2023-11-22T11:52:29;4.03;;;1.98;;
78854;SDS011;68206;59.956;30.234;2023-11-22T11:54:58;2.55;;;1.50;;
78854;SDS011;68206;59.956;30.234;2023-11-22T11:57:31;3.40;;;1.90;;
78854;SDS011;68206;59.956;30.234;2023-11-22T12:00:00;4.18;;;2.20;;
78854;SDS011;68206;59.956;30.234;2023-11-22T12:02:37;3.05;;;1.85;;
78854;SDS011;68206;59.956;30.234;2023-11-22T12:05:06;2.13;;;1.63;;
78854;SDS011;68206;59.956;30.234;2023-11-22T12:07:36;3.92;;;2.00;;
78854;SDS011;68206;59.956;30.234;2023-11-22T12:10:05;4.03;;;2.35;;
78854;SDS011;68206;59.956;30.234;2023-11-22T12:12:36;5.80;;;2.25;;
78854;SDS011;68206;59.956;30.234;2023-11-22T12:15:07;4.07;;;1.90;;
78854;SDS011;68206;59.956;30.234;2023-11-22T12:17:37;2.78;;;1.73;;
78854;SDS011;68206;59.956;30.234;2023-11-22T12:20:12;4.60;;;2.00;;
78854;SDS011;68206;59.956;30.234;2023-11-22T12:22:44;3.35;;;2.05;;
78854;SDS011;68206;59.956;30.234;2023-11-22T12:25:13;5.43;;;1.92;;
78854;SDS011;68206;59.956;30.234;2023-11-22T12:27:44;3.25;;;1.75;;
78854;SDS011;68206;59.956;30.234;2023-11-22T12:30:27;2.67;;;1.90;;
78854;SDS011;68206;59.956;30.234;2023-11-22T12:33:01;5.05;;;1.90;;
78854;SDS011;68206;59.956;30.234;2023-11-22T12:35:31;5.10;;;2.88;;
78854;SDS011;68206;59.956;30.234;2023-11-22T12:38:01;1.90;;;1.45;;
78854;SDS011;68206;59.956;30.234;2023-11-22T12:40:32;3.78;;;1.48;;
78854;SDS011;68206;59.956;30.234;2023-11-22T12:43:03;2.47;;;1.83;;
78854;SDS011;68206;59.956;30.234;2023-11-22T12:45:33;1.88;;;1.50;;
78854;SDS011;68206;59.956;30.234;2023-11-22T12:48:19;2.83;;;1.73;;
78854;SDS011;68206;59.956;30.234;2023-11-22T12:50:50;2.42;;;1.60;;
78854;SDS011;68206;59.956;30.234;2023-11-22T12:53:21;3.17;;;1.80;;
78854;SDS011;68206;59.956;30.234;2023-11-22T12:55:52;2.83;;;2.10;;
78854;SDS011;68206;59.956;30.234;2023-11-22T12:58:23;2.67;;;1.75;;
78854;SDS011;68206;59.956;30.234;2023-11-22T13:00:53;4.50;;;1.60;;
78854;SDS011;68206;59.956;30.234;2023-11-22T13:03:25;3.70;;;1.70;;
78854;SDS011;68206;59.956;30.234;2023-11-22T13:05:55;4.32;;;2.20;;
78854;SDS011;68206;59.956;30.234;2023-11-22T13:08:24;4.15;;;1.90;;
78854;SDS011;68206;59.956;30.234;2023-11-22T13:10:56;2.20;;;1.70;;
78854;SDS011;68206;59.956;30.234;2023-11-22T13:13:27;3.08;;;1.90;;
78854;SDS011;68206;59.956;30.234;2023-11-22T13:15:58;4.45;;;1.80;;
78854;SDS011;68206;59.956;30.234;2023-11-22T13:18:26;2.60;;;1.60;;
78854;SDS011;68206;59.956;30.234;2023-11-22T13:20:55;2.28;;;1.60;;
78854;SDS011;68206;59.956;30.234;2023-11-22T13:23:23;2.83;;;1.70;;
78854;SDS011;68206;59.956;30.234;2023-11-22T13:25:52;2.90;;;1.58;;
78854;SDS011;68206;59.956;30.234;2023-11-22T13:28:20;2.47;;;1.58;;
78854;SDS011;68206;59.956;30.234;2023-11-22T13:30:52;6.18;;;1.60;;
78854;SDS011;68206;59.956;30.234;2023-11-22T13:33:20;5.60;;;1.95;;
78854;SDS011;68206;59.956;30.234;2023-11-22T13:35:49;3.15;;;1.85;;
78854;SDS011;68206;59.956;30.234;2023-11-22T13:38:18;2.13;;;1.55;;
78854;SDS011;68206;59.956;30.234;2023-11-22T13:40:47;2.72;;;2.13;;
78854;SDS011;68206;59.956;30.234;2023-11-22T13:43:15;3.60;;;2.20;;
78854;SDS011;68206;59.956;30.234;2023-11-22T13:45:45;3.28;;;1.90;;
78854;SDS011;68206;59.956;30.234;2023-11-22T13:48:15;7.55;;;2.22;;
78854;SDS011;68206;59.956;30.234;2023-11-22T13:50:43;3.72;;;2.00;;
78854;SDS011;68206;59.956;30.234;2023-11-22T13:53:12;4.50;;;1.58;;
78854;SDS011;68206;59.956;30.234;2023-11-22T13:55:40;2.70;;;1.73;;
78854;SDS011;68206;59.956;30.234;2023-11-22T13:58:08;2.58;;;2.20;;
78854;SDS011;68206;59.956;30.234;2023-11-22T14:00:37;3.78;;;2.30;;
78854;SDS011;68206;59.956;30.234;2023-11-22T14:03:05;4.60;;;2.10;;
78854;SDS011;68206;59.956;30.234;2023-11-22T14:05:36;4.75;;;2.58;;
78854;SDS011;68206;59.956;30.234;2023-11-22T14:08:06;6.15;;;2.95;;
78854;SDS011;68206;59.956;30.234;2023-11-22T14:10:35;6.53;;;2.63;;
78854;SDS011;68206;59.956;30.234;2023-11-22T14:13:03;4.38;;;2.60;;
78854;SDS011;68206;59.956;30.234;2023-11-22T14:15:33;4.32;;;2.20;;
78854;SDS011;68206;59.956;30.234;2023-11-22T14:18:02;6.35;;;2.78;;
78854;SDS011;68206;59.956;30.234;2023-11-22T14:20:31;3.08;;;2.45;;
78854;SDS011;68206;59.956;30.234;2023-11-22T14:23:03;6.82;;;3.10;;
78854;SDS011;68206;59.956;30.234;2023-11-22T14:25:31;5.45;;;2.75;;
78854;SDS011;68206;59.956;30.234;2023-11-22T14:27:59;4.47;;;2.67;;
78854;SDS011;68206;59.956;30.234;2023-11-22T14:30:28;4.35;;;2.05;;
78854;SDS011;68206;59.956;30.234;2023-11-22T14:33:02;5.72;;;2.85;;
78854;SDS011;68206;59.956;30.234;2023-11-22T14:35:34;5.97;;;3.10;;
78854;SDS011;68206;59.956;30.234;2023-11-22T14:38:04;6.88;;;3.05;;
78854;SDS011;68206;59.956;30.234;2023-11-22T14:40:34;5.88;;;3.22;;
78854;SDS011;68206;59.956;30.234;2023-11-22T14:43:04;6.00;;;3.60;;
78854;SDS011;68206;59.956;30.234;2023-11-22T14:45:34;5.03;;;2.75;;
78854;SDS011;68206;59.956;30.234;2023-11-22T14:48:04;6.75;;;2.80;;